Time;durP1;ratioP1;P1;durP2;ratioP2;P2;SDS_P1;SDS_P2;PMS_P1;PMS_P2;Temp;Humidity;BMP_temperature;BMP_pressure;BME280_temperature;BME280_humidity;BME280_pressure;Samples;Min_cycle;Max_cycle;Signal;HPM_P1;HPM_P2
2023/04/28 00:00:50;;;;;;;2.03;1.58;;;;;;;;;;5103727;27;20023;-81
2023/04/28 00:03:16;;;;;;;2.05;1.50;;;;;;;;;;5137545;27;20101;-81
2023/04/28 00:05:41;;;;;;;1.92;1.45;;;;;;;;;;5137320;27;20473;-81
2023/04/28 00:08:07;;;;;;;2.03;1.50;;;;;;;;;;5120609;27;20079;-81
2023/04/28 00:10:33;;;;;;;1.50;1.40;;;;;;;;;;5155825;27;20079;-80
2023/04/28 00:12:58;;;;;;;2.25;1.58;;;;;;;;;;5137706;27;20030;-80
2023/04/28 00:15:23;;;;;;;1.98;1.48;;;;;;;;;;5156291;27;20027;-80
2023/04/28 00:17:49;;;;;;;2.90;1.83;;;;;;;;;;5137231;27;20038;-81
2023/04/28 00:20:14;;;;;;;1.63;1.50;;;;;;;;;;5155978;27;20522;-80
2023/04/28 00:22:40;;;;;;;2.72;1.70;;;;;;;;;;5155891;27;20107;-80
2023/04/28 00:25:06;;;;;;;1.40;1.30;;;;;;;;;;5137019;27;20097;-80
2023/04/28 00:27:33;;;;;;;2.70;1.63;;;;;;;;;;5137048;27;20019;-81
2023/04/28 00:29:58;;;;;;;3.75;1.55;;;;;;;;;;5155426;27;20497;-81
2023/04/28 00:32:23;;;;;;;1.75;1.20;;;;;;;;;;5155690;27;20080;-81
2023/04/28 00:34:49;;;;;;;9.27;1.70;;;;;;;;;;5155862;27;20453;-80
2023/04/28 00:37:14;;;;;;;1.77;1.55;;;;;;;;;;5155028;27;20110;-80
2023/04/28 00:39:40;;;;;;;3.17;1.50;;;;;;;;;;5154951;27;20472;-80
2023/04/28 00:42:06;;;;;;;2.65;1.60;;;;;;;;;;5137303;27;20060;-81
2023/04/28 00:44:31;;;;;;;1.98;1.65;;;;;;;;;;5155150;27;20037;-81
2023/04/28 00:46:58;;;;;;;1.95;1.27;;;;;;;;;;5136702;27;20439;-82
2023/04/28 00:49:24;;;;;;;2.13;1.38;;;;;;;;;;5119535;27;20026;-80
2023/04/28 00:51:49;;;;;;;4.80;1.50;;;;;;;;;;5119901;27;20453;-80
2023/04/28 00:54:14;;;;;;;2.13;1.40;;;;;;;;;;5155073;27;20019;-80
2023/04/28 00:56:40;;;;;;;1.88;1.30;;;;;;;;;;5155395;27;20465;-81
2023/04/28 00:59:05;;;;;;;1.40;1.30;;;;;;;;;;5136747;27;20430;-80
2023/04/28 01:01:31;;;;;;;3.30;1.67;;;;;;;;;;5102523;27;20392;-80
2023/04/28 01:03:56;;;;;;;4.65;1.70;;;;;;;;;;5155123;27;20027;-80
2023/04/28 01:06:22;;;;;;;3.65;1.40;;;;;;;;;;5136383;27;20086;-80
2023/04/28 01:08:49;;;;;;;2.03;1.40;;;;;;;;;;5136770;27;20023;-80
2023/04/28 01:11:15;;;;;;;1.45;1.35;;;;;;;;;;5119328;27;20451;-80
2023/04/28 01:13:41;;;;;;;1.60;1.40;;;;;;;;;;5136334;27;20027;-81
2023/04/28 01:16:06;;;;;;;4.13;1.40;;;;;;;;;;5136648;27;20033;-81
2023/04/28 01:18:32;;;;;;;2.40;1.38;;;;;;;;;;5136624;27;20472;-80
2023/04/28 01:20:57;;;;;;;1.83;1.35;;;;;;;;;;5119533;27;20046;-80
2023/04/28 01:23:23;;;;;;;1.40;1.30;;;;;;;;;;5136310;27;20083;-80
2023/04/28 01:25:48;;;;;;;3.10;1.50;;;;;;;;;;5136116;27;20038;-81
2023/04/28 01:28:13;;;;;;;1.67;1.17;;;;;;;;;;5154679;27;20023;-81
2023/04/28 01:30:39;;;;;;;4.72;1.40;;;;;;;;;;5136123;27;20435;-80
2023/04/28 01:33:04;;;;;;;1.88;1.23;;;;;;;;;;5136128;27;20050;-81
2023/04/28 01:35:30;;;;;;;1.85;1.67;;;;;;;;;;5136271;27;20366;-82
2023/04/28 01:37:55;;;;;;;4.55;1.48;;;;;;;;;;5136214;27;20023;-81
2023/04/28 01:40:20;;;;;;;1.30;1.10;;;;;;;;;;5118879;27;20037;-81
2023/04/28 01:42:46;;;;;;;3.08;1.35;;;;;;;;;;5119611;27;20042;-82
2023/04/28 01:45:11;;;;;;;1.58;1.48;;;;;;;;;;5154492;27;20023;-80
2023/04/28 01:47:37;;;;;;;2.95;1.40;;;;;;;;;;5118773;27;20409;-80
2023/04/28 01:50:03;;;;;;;1.90;1.50;;;;;;;;;;5156343;27;20031;-81
2023/04/28 01:52:28;;;;;;;1.98;1.40;;;;;;;;;;5139965;27;20037;-81
2023/04/28 01:54:54;;;;;;;2.53;1.20;;;;;;;;;;5139858;27;20056;-81
2023/04/28 01:57:19;;;;;;;1.73;1.48;;;;;;;;;;5158742;27;20030;-81
2023/04/28 01:59:45;;;;;;;2.10;1.60;;;;;;;;;;5123401;27;20051;-81
2023/04/28 02:02:10;;;;;;;1.40;1.30;;;;;;;;;;5140033;27;20404;-81
2023/04/28 02:04:39;;;;;;;1.38;1.20;;;;;;;;;;5139777;27;20019;-81
2023/04/28 02:07:05;;;;;;;1.45;1.27;;;;;;;;;;5140289;27;20027;-82
2023/04/28 02:09:31;;;;;;;3.42;1.40;;;;;;;;;;5139724;27;20049;-81
2023/04/28 02:11:56;;;;;;;1.60;1.50;;;;;;;;;;5122550;27;20469;-81
2023/04/28 02:14:22;;;;;;;2.08;1.20;;;;;;;;;;5139785;27;20031;-81
2023/04/28 02:16:47;;;;;;;2.85;1.65;;;;;;;;;;5158657;27;20023;-81
2023/04/28 02:19:14;;;;;;;1.38;1.27;;;;;;;;;;5158012;27;20056;-81
2023/04/28 02:21:40;;;;;;;1.48;1.35;;;;;;;;;;5139641;27;20026;-81
2023/04/28 02:24:07;;;;;;;2.00;1.63;;;;;;;;;;5139500;27;20037;-81
2023/04/28 02:26:32;;;;;;;2.53;1.35;;;;;;;;;;5139580;27;20026;-81
2023/04/28 02:28:58;;;;;;;1.40;1.30;;;;;;;;;;5139345;27;20029;-81
2023/04/28 02:31:23;;;;;;;2.35;1.38;;;;;;;;;;5139243;27;20026;-81
2023/04/28 02:33:48;;;;;;;2.00;1.40;;;;;;;;;;5157950;27;20030;-81
2023/04/28 02:36:14;;;;;;;1.60;1.50;;;;;;;;;;5139760;27;20030;-81
2023/04/28 02:38:40;;;;;;;2.88;1.90;;;;;;;;;;5157652;27;20473;-81
2023/04/28 02:41:07;;;;;;;1.50;1.40;;;;;;;;;;5139495;27;20423;-80
2023/04/28 02:43:34;;;;;;;2.47;1.58;;;;;;;;;;5122711;27;20481;-81
2023/04/28 02:45:59;;;;;;;2.58;1.25;;;;;;;;;;5157322;27;20037;-80
2023/04/28 02:48:25;;;;;;;1.65;1.40;;;;;;;;;;5139002;27;20109;-81
2023/04/28 02:50:51;;;;;;;2.88;1.60;;;;;;;;;;5139060;27;20027;-81
2023/04/28 02:53:18;;;;;;;2.28;1.65;;;;;;;;;;5138855;27;20381;-81
2023/04/28 02:55:43;;;;;;;1.38;1.20;;;;;;;;;;5138885;27;20086;-81
2023/04/28 02:58:08;;;;;;;3.00;1.48;;;;;;;;;;5157557;27;20030;-81
2023/04/28 03:00:34;;;;;;;1.45;1.35;;;;;;;;;;5138697;27;20354;-81
2023/04/28 03:03:00;;;;;;;1.30;1.20;;;;;;;;;;5138608;27;20367;-82
2023/04/28 03:05:26;;;;;;;1.40;1.30;;;;;;;;;;5121607;27;20019;-80
2023/04/28 03:07:51;;;;;;;3.50;1.67;;;;;;;;;;5138730;27;20045;-80
2023/04/28 03:10:17;;;;;;;1.40;1.30;;;;;;;;;;5138592;27;20037;-80
2023/04/28 03:12:42;;;;;;;1.20;1.13;;;;;;;;;;5157379;27;20035;-81
2023/04/28 03:15:08;;;;;;;2.55;1.60;;;;;;;;;;5138430;27;20110;-81
2023/04/28 03:17:35;;;;;;;2.22;1.65;;;;;;;;;;5138808;27;20079;-80
2023/04/28 03:20:01;;;;;;;3.03;1.42;;;;;;;;;;5121301;27;20499;-80
2023/04/28 03:22:27;;;;;;;2.70;1.60;;;;;;;;;;5138188;27;20446;-80
2023/04/28 03:24:52;;;;;;;1.95;1.50;;;;;;;;;;5138065;27;20023;-80
2023/04/28 03:27:17;;;;;;;3.13;1.70;;;;;;;;;;5138192;27;20035;-81
2023/04/28 03:29:43;;;;;;;1.85;1.40;;;;;;;;;;5156632;27;20034;-80
2023/04/28 03:32:08;;;;;;;1.40;1.30;;;;;;;;;;5156987;27;20113;-80
2023/04/28 03:34:33;;;;;;;1.40;1.30;;;;;;;;;;5156877;27;20027;-80
2023/04/28 03:36:59;;;;;;;2.40;1.40;;;;;;;;;;5156614;27;20026;-80
2023/04/28 03:39:24;;;;;;;3.58;1.42;;;;;;;;;;5137932;27;20114;-81
2023/04/28 03:41:49;;;;;;;2.67;1.50;;;;;;;;;;5156999;27;20030;-80
2023/04/28 03:44:15;;;;;;;2.83;1.50;;;;;;;;;;5156255;27;20027;-81
2023/04/28 03:46:40;;;;;;;1.85;1.42;;;;;;;;;;5137690;27;20046;-81
2023/04/28 03:49:06;;;;;;;4.50;1.70;;;;;;;;;;5156386;27;20054;-81
2023/04/28 03:51:31;;;;;;;1.50;1.40;;;;;;;;;;5137667;27;20056;-81
2023/04/28 03:53:57;;;;;;;1.35;1.23;;;;;;;;;;5156151;27;20392;-81
2023/04/28 03:56:22;;;;;;;2.78;1.50;;;;;;;;;;5138449;27;20548;-81
2023/04/28 03:58:48;;;;;;;1.40;1.30;;;;;;;;;;5137496;27;20480;-82
2023/04/28 04:01:13;;;;;;;1.42;1.33;;;;;;;;;;5137347;27;20054;-80
2023/04/28 04:03:39;;;;;;;1.30;1.20;;;;;;;;;;5137872;27;20492;-80
2023/04/28 04:06:05;;;;;;;1.92;1.63;;;;;;;;;;5155992;27;20039;-81
2023/04/28 04:08:31;;;;;;;1.40;1.30;;;;;;;;;;5137580;27;20450;-81
2023/04/28 04:10:57;;;;;;;2.38;1.48;;;;;;;;;;5137437;27;20075;-81
2023/04/28 04:13:22;;;;;;;2.35;1.55;;;;;;;;;;5137186;27;20035;-81
2023/04/28 04:15:49;;;;;;;3.80;1.77;;;;;;;;;;5155959;27;20102;-80
2023/04/28 04:18:14;;;;;;;4.00;1.50;;;;;;;;;;5137746;27;20023;-80
2023/04/28 04:20:40;;;;;;;1.75;1.23;;;;;;;;;;5155674;27;20472;-81
2023/04/28 04:23:05;;;;;;;2.63;1.60;;;;;;;;;;5137293;27;20033;-81
2023/04/28 04:25:31;;;;;;;1.60;1.35;;;;;;;;;;5155475;27;20023;-81
2023/04/28 04:27:57;;;;;;;2.60;1.50;;;;;;;;;;5155781;27;20526;-81
2023/04/28 04:30:22;;;;;;;1.48;1.23;;;;;;;;;;5137099;27;20093;-80
2023/04/28 04:32:48;;;;;;;1.40;1.30;;;;;;;;;;5137382;27;20457;-79
2023/04/28 04:35:13;;;;;;;1.60;1.20;;;;;;;;;;5155861;27;20122;-81
2023/04/28 04:37:39;;;;;;;3.60;1.38;;;;;;;;;;5136812;27;20027;-81
2023/04/28 04:40:05;;;;;;;1.80;1.70;;;;;;;;;;5136763;27;20488;-81
2023/04/28 04:42:31;;;;;;;1.50;1.40;;;;;;;;;;5137179;27;20075;-81
2023/04/28 04:44:56;;;;;;;1.83;1.42;;;;;;;;;;5119639;27;20039;-81
2023/04/28 04:47:22;;;;;;;2.47;1.40;;;;;;;;;;5154988;27;20057;-82
2023/04/28 04:49:51;;;;;;;1.55;1.30;;;;;;;;;;5136452;27;20034;-82
2023/04/28 04:52:16;;;;;;;2.85;1.38;;;;;;;;;;5120391;27;20034;-82
2023/04/28 04:54:42;;;;;;;2.35;1.33;;;;;;;;;;5136486;27;20038;-81
2023/04/28 04:57:07;;;;;;;3.30;1.48;;;;;;;;;;5119235;27;20027;-81
2023/04/28 04:59:33;;;;;;;1.70;1.40;;;;;;;;;;5155227;27;20061;-82
2023/04/28 05:01:58;;;;;;;3.20;1.38;;;;;;;;;;5136492;27;20031;-82
2023/04/28 05:04:23;;;;;;;2.30;1.52;;;;;;;;;;5154960;27;20030;-81
2023/04/28 05:06:49;;;;;;;2.50;1.50;;;;;;;;;;5154972;27;20374;-80
2023/04/28 05:09:14;;;;;;;1.90;1.48;;;;;;;;;;5154951;27;20035;-80
2023/04/28 05:11:40;;;;;;;2.25;1.35;;;;;;;;;;5155220;27;20046;-81
2023/04/28 05:14:05;;;;;;;1.63;1.40;;;;;;;;;;5136361;27;20019;-81
2023/04/28 05:16:31;;;;;;;1.55;1.30;;;;;;;;;;5154806;27;20018;-78
2023/04/28 05:18:56;;;;;;;1.00;1.00;;;;;;;;;;5136087;27;20384;-79
2023/04/28 05:21:22;;;;;;;1.45;1.35;;;;;;;;;;5154747;27;20473;-79
2023/04/28 05:23:47;;;;;;;1.75;1.10;;;;;;;;;;5118844;27;20037;-80
2023/04/28 05:26:13;;;;;;;2.15;1.50;;;;;;;;;;5140372;27;20035;-80
2023/04/28 05:28:40;;;;;;;6.85;2.30;;;;;;;;;;5140695;27;20022;-80
2023/04/28 05:31:05;;;;;;;5.50;2.40;;;;;;;;;;5159293;27;20541;-81
2023/04/28 05:33:31;;;;;;;10.15;2.90;;;;;;;;;;5159790;27;20038;-80
2023/04/28 05:35:56;;;;;;;11.55;3.40;;;;;;;;;;5140229;27;20400;-81
2023/04/28 05:38:22;;;;;;;10.65;4.00;;;;;;;;;;5159075;27;20052;-81
2023/04/28 05:40:47;;;;;;;10.98;3.30;;;;;;;;;;5140611;27;20474;-80
2023/04/28 05:43:13;;;;;;;10.45;3.10;;;;;;;;;;5140434;27;20034;-80
2023/04/28 05:45:38;;;;;;;9.40;2.95;;;;;;;;;;5159037;27;20410;-80
2023/04/28 05:48:04;;;;;;;9.55;3.17;;;;;;;;;;5140267;27;20043;-81
2023/04/28 05:50:30;;;;;;;6.10;3.00;;;;;;;;;;5158829;27;20072;-82
2023/04/28 05:52:56;;;;;;;9.38;2.97;;;;;;;;;;5123241;27;20046;-83
2023/04/28 05:55:21;;;;;;;8.75;2.72;;;;;;;;;;5140326;27;20480;-82
2023/04/28 05:57:46;;;;;;;9.00;2.90;;;;;;;;;;5122970;27;20049;-82
2023/04/28 06:00:13;;;;;;;12.30;2.95;;;;;;;;;;5122849;27;20038;-82
2023/04/28 06:02:38;;;;;;;9.40;3.17;;;;;;;;;;5139986;27;20034;-80
2023/04/28 06:05:04;;;;;;;7.97;2.83;;;;;;;;;;5158288;27;20027;-81
2023/04/28 06:07:29;;;;;;;10.75;3.03;;;;;;;;;;5159086;27;20418;-82
2023/04/28 06:09:54;;;;;;;5.88;2.65;;;;;;;;;;5158738;27;20034;-82
2023/04/28 06:12:20;;;;;;;5.88;2.47;;;;;;;;;;5122758;27;20027;-80
2023/04/28 06:14:45;;;;;;;6.50;2.47;;;;;;;;;;5139826;27;20083;-81
2023/04/28 06:17:11;;;;;;;9.80;3.00;;;;;;;;;;5158560;27;20071;-82
2023/04/28 06:19:36;;;;;;;5.43;2.58;;;;;;;;;;5122545;27;20027;-82
2023/04/28 06:22:02;;;;;;;6.28;2.38;;;;;;;;;;5140465;27;20118;-81
2023/04/28 06:24:27;;;;;;;7.90;2.53;;;;;;;;;;5157998;27;20023;-81
2023/04/28 06:26:53;;;;;;;7.47;2.40;;;;;;;;;;5139832;27;20079;-82
2023/04/28 06:29:19;;;;;;;8.18;2.35;;;;;;;;;;5158150;27;20047;-81
2023/04/28 06:31:44;;;;;;;4.63;2.00;;;;;;;;;;5139349;27;20481;-80
2023/04/28 06:34:10;;;;;;;4.70;2.15;;;;;;;;;;5157878;27;20049;-80
2023/04/28 06:36:35;;;;;;;3.78;2.10;;;;;;;;;;5158076;27;20035;-78
2023/04/28 06:39:01;;;;;;;4.93;2.00;;;;;;;;;;5157940;27;20067;-80
2023/04/28 06:41:28;;;;;;;5.68;2.03;;;;;;;;;;5139541;27;20457;-81
2023/04/28 06:43:53;;;;;;;6.32;2.53;;;;;;;;;;5139511;27;20035;-81
2023/04/28 06:46:19;;;;;;;5.68;2.42;;;;;;;;;;5157354;27;20019;-81
2023/04/28 06:48:44;;;;;;;4.40;2.28;;;;;;;;;;5139741;27;20040;-80
2023/04/28 06:51:09;;;;;;;4.57;2.00;;;;;;;;;;5121864;27;20099;-80
2023/04/28 06:53:36;;;;;;;12.98;2.80;;;;;;;;;;5121912;27;20061;-81
2023/04/28 06:56:01;;;;;;;10.98;2.45;;;;;;;;;;5121877;27;20018;-81
2023/04/28 06:58:27;;;;;;;5.35;2.25;;;;;;;;;;5138903;27;20022;-83
2023/04/28 07:00:53;;;;;;;5.10;2.17;;;;;;;;;;5121634;27;20076;-82
2023/04/28 07:03:18;;;;;;;6.25;2.70;;;;;;;;;;5121644;27;20026;-80
2023/04/28 07:05:44;;;;;;;7.72;2.78;;;;;;;;;;5138718;27;20034;-82
2023/04/28 07:08:09;;;;;;;4.22;2.13;;;;;;;;;;5121523;27;20034;-84
2023/04/28 07:10:35;;;;;;;10.05;2.40;;;;;;;;;;5138709;27;20030;-83
2023/04/28 07:13:00;;;;;;;3.97;2.35;;;;;;;;;;5158151;27;20038;-82
2023/04/28 07:15:26;;;;;;;12.93;2.63;;;;;;;;;;5139131;27;20023;-82
2023/04/28 07:17:52;;;;;;;7.82;2.42;;;;;;;;;;5157286;27;20022;-83
2023/04/28 07:20:18;;;;;;;6.32;2.50;;;;;;;;;;5138612;27;20041;-81
2023/04/28 07:22:43;;;;;;;8.27;2.58;;;;;;;;;;5121449;27;20058;-81
2023/04/28 07:25:09;;;;;;;5.90;2.65;;;;;;;;;;5122175;27;20018;-82
2023/04/28 07:27:34;;;;;;;8.07;2.28;;;;;;;;;;5139201;27;20058;-82
2023/04/28 07:30:00;;;;;;;4.65;2.28;;;;;;;;;;5121011;27;20110;-83
2023/04/28 07:32:25;;;;;;;8.55;2.63;;;;;;;;;;5104102;27;20400;-81
2023/04/28 07:34:51;;;;;;;4.90;2.13;;;;;;;;;;5156699;27;20351;-83
2023/04/28 07:37:17;;;;;;;5.22;2.10;;;;;;;;;;5138127;27;20035;-80
2023/04/28 07:39:42;;;;;;;5.97;2.60;;;;;;;;;;5120834;27;20022;-81
2023/04/28 07:42:09;;;;;;;5.13;2.20;;;;;;;;;;5148537;27;20402;-82
2023/04/28 07:44:35;;;;;;;4.28;2.17;;;;;;;;;;5156407;27;20054;-81
2023/04/28 07:47:01;;;;;;;3.78;2.20;;;;;;;;;;5120453;27;20073;-81
2023/04/28 07:49:30;;;;;;;5.05;2.28;;;;;;;;;;5156412;27;20457;-82
2023/04/28 07:51:56;;;;;;;11.95;2.45;;;;;;;;;;5120707;27;20079;-81
2023/04/28 07:54:21;;;;;;;5.97;2.45;;;;;;;;;;5137915;27;20023;-81
2023/04/28 07:56:47;;;;;;;4.65;2.38;;;;;;;;;;5156531;27;20033;-82
2023/04/28 07:59:13;;;;;;;5.68;2.30;;;;;;;;;;5120540;27;20113;-82
2023/04/28 08:01:38;;;;;;;6.43;2.30;;;;;;;;;;5137578;27;20086;-82
2023/04/28 08:04:04;;;;;;;9.35;2.50;;;;;;;;;;5120562;27;20037;-83
2023/04/28 08:06:29;;;;;;;7.50;2.70;;;;;;;;;;5155882;27;20118;-82
2023/04/28 08:08:54;;;;;;;4.68;2.20;;;;;;;;;;5120329;27;20027;-81
2023/04/28 08:11:21;;;;;;;6.97;2.58;;;;;;;;;;5134120;27;20026;-82
2023/04/28 08:13:47;;;;;;;4.35;2.40;;;;;;;;;;5150977;27;20076;-82
2023/04/28 08:16:13;;;;;;;6.75;2.85;;;;;;;;;;5103749;27;20022;-81
2023/04/28 08:18:39;;;;;;;8.88;2.75;;;;;;;;;;5120257;27;20495;-82
2023/04/28 08:21:05;;;;;;;2.95;2.15;;;;;;;;;;5137616;27;20030;-79
2023/04/28 08:23:30;;;;;;;8.85;2.70;;;;;;;;;;5137081;27;20476;-80
2023/04/28 08:25:56;;;;;;;5.57;2.53;;;;;;;;;;5155660;27;20037;-82
2023/04/28 08:28:22;;;;;;;5.22;2.67;;;;;;;;;;5137123;27;20088;-82
2023/04/28 08:30:47;;;;;;;6.28;2.50;;;;;;;;;;5103020;27;20027;-82
2023/04/28 08:33:13;;;;;;;6.68;2.72;;;;;;;;;;5137688;27;20033;-79
2023/04/28 08:35:38;;;;;;;7.45;2.72;;;;;;;;;;5119933;27;20022;-82
2023/04/28 08:38:06;;;;;;;4.70;3.25;;;;;;;;;;5155639;27;20473;-80
2023/04/28 08:40:31;;;;;;;8.70;2.65;;;;;;;;;;5136820;27;20023;-83
2023/04/28 08:42:58;;;;;;;9.55;2.83;;;;;;;;;;5137585;27;20121;-82
2023/04/28 08:45:24;;;;;;;4.00;2.70;;;;;;;;;;5136879;27;20125;-83
2023/04/28 08:47:50;;;;;;;7.32;2.80;;;;;;;;;;5119908;27;20499;-82
2023/04/28 08:50:20;;;;;;;4.82;2.75;;;;;;;;;;5136877;27;20034;-82
2023/04/28 08:52:46;;;;;;;7.28;2.95;;;;;;;;;;5137561;27;20029;-83
2023/04/28 08:55:12;;;;;;;7.45;2.60;;;;;;;;;;5155494;27;20026;-82
2023/04/28 08:57:37;;;;;;;4.05;2.30;;;;;;;;;;5137181;27;20038;-82
2023/04/28 09:00:04;;;;;;;4.70;2.80;;;;;;;;;;5135814;27;20023;-82
2023/04/28 09:02:29;;;;;;;3.83;2.70;;;;;;;;;;5136658;27;20029;-82
2023/04/28 09:04:54;;;;;;;5.05;2.53;;;;;;;;;;5136979;27;20038;-81
2023/04/28 09:07:20;;;;;;;5.53;2.60;;;;;;;;;;5119468;27;20034;-81
2023/04/28 09:09:45;;;;;;;5.28;2.75;;;;;;;;;;5137067;27;20041;-81
2023/04/28 09:12:11;;;;;;;4.88;2.58;;;;;;;;;;5119724;27;20109;-80
2023/04/28 09:14:37;;;;;;;5.38;2.53;;;;;;;;;;5154855;27;20384;-81
2023/04/28 09:17:10;;;;;;;3.55;2.33;;;;;;;;;;5137059;27;20022;-81
2023/04/28 09:19:36;;;;;;;5.57;2.88;;;;;;;;;;5155263;27;20079;-80
2023/04/28 09:22:03;;;;;;;3.70;2.42;;;;;;;;;;5136740;27;20027;-81
2023/04/28 09:24:33;;;;;;;4.75;2.72;;;;;;;;;;5136705;27;20066;-81
2023/04/28 09:27:01;;;;;;;3.95;2.60;;;;;;;;;;5136787;27;20023;-85
2023/04/28 09:29:26;;;;;;;3.33;2.33;;;;;;;;;;5156298;27;20488;-81
2023/04/28 09:31:53;;;;;;;5.80;2.58;;;;;;;;;;5136518;27;20022;-81
2023/04/28 09:34:18;;;;;;;4.35;2.90;;;;;;;;;;5120302;27;20031;-81
2023/04/28 09:36:44;;;;;;;3.85;2.55;;;;;;;;;;5155259;27;20053;-81
2023/04/28 09:39:09;;;;;;;5.18;3.25;;;;;;;;;;5120678;27;20055;-81
2023/04/28 09:41:44;;;;;;;3.03;2.28;;;;;;;;;;5136895;27;20027;-80
2023/04/28 09:44:17;;;;;;;4.55;2.38;;;;;;;;;;5119044;27;20050;-81
2023/04/28 09:46:44;;;;;;;8.30;2.72;;;;;;;;;;5154746;27;20058;-81
2023/04/28 09:49:10;;;;;;;2.50;2.30;;;;;;;;;;5101982;27;20113;-81
2023/04/28 09:51:36;;;;;;;3.40;2.53;;;;;;;;;;5136203;27;20034;-80
2023/04/28 09:54:02;;;;;;;3.33;2.42;;;;;;;;;;5154909;27;20059;-81
2023/04/28 09:56:29;;;;;;;3.10;2.35;;;;;;;;;;5136045;27;20018;-81
2023/04/28 09:58:58;;;;;;;4.00;2.40;;;;;;;;;;5136421;27;20496;-81
2023/04/28 10:01:24;;;;;;;4.55;2.78;;;;;;;;;;5118859;27;20485;-81
2023/04/28 10:03:52;;;;;;;6.88;2.53;;;;;;;;;;5119006;27;20023;-80
2023/04/28 10:06:18;;;;;;;4.70;2.90;;;;;;;;;;5154539;27;20019;-81
2023/04/28 10:08:46;;;;;;;6.05;2.80;;;;;;;;;;5135867;27;20057;-81
2023/04/28 10:11:15;;;;;;;6.97;2.75;;;;;;;;;;5138519;27;20027;-82
2023/04/28 10:13:41;;;;;;;4.78;2.80;;;;;;;;;;5122895;27;20027;-82
2023/04/28 10:16:07;;;;;;;3.55;2.63;;;;;;;;;;5158555;27;20025;-83
2023/04/28 10:18:34;;;;;;;5.28;2.90;;;;;;;;;;5139703;27;20149;-83
2023/04/28 10:21:02;;;;;;;3.60;2.55;;;;;;;;;;5122661;27;20027;-83
2023/04/28 10:23:58;;;;;;;8.40;2.50;;;;;;;;;;5140146;27;20110;-83
2023/04/28 10:26:57;;;;;;;5.88;2.65;;;;;;;;;;5139554;27;20072;-82
2023/04/28 10:29:26;;;;;;;5.05;2.63;;;;;;;;;;5122259;27;20563;-83
2023/04/28 10:32:17;;;;;;;5.82;2.50;;;;;;;;;;5139403;27;20022;-82
2023/04/28 10:34:43;;;;;;;3.65;2.60;;;;;;;;;;5122182;27;20026;-82
2023/04/28 10:37:09;;;;;;;3.13;2.25;;;;;;;;;;5158007;27;20023;-82
2023/04/28 10:39:35;;;;;;;3.45;2.47;;;;;;;;;;5139501;27;20384;-82
2023/04/28 10:42:00;;;;;;;3.70;2.70;;;;;;;;;;5139422;27;20034;-82
2023/04/28 10:44:29;;;;;;;4.65;2.53;;;;;;;;;;5121932;27;20034;-82
2023/04/28 10:47:08;;;;;;;4.03;2.53;;;;;;;;;;5138847;27;20042;-81
2023/04/28 10:49:58;;;;;;;5.43;2.70;;;;;;;;;;5139274;27;20129;-82
2023/04/28 10:52:33;;;;;;;3.85;2.50;;;;;;;;;;5157668;27;20019;-82
2023/04/28 10:55:36;;;;;;;5.03;2.45;;;;;;;;;;5157575;27;20019;-83
2023/04/28 10:58:28;;;;;;;3.95;2.65;;;;;;;;;;5139677;27;20097;-83
2023/04/28 11:00:53;;;;;;;7.15;2.72;;;;;;;;;;5152762;27;20058;-83
2023/04/28 11:06:38;;;;;;;5.32;2.60;;;;;;;;;;5157989;27;20065;-83
2023/04/28 11:09:13;;;;;;;3.45;2.60;;;;;;;;;;5106251;27;20026;-83
2023/04/28 11:11:59;;;;;;;5.15;2.70;;;;;;;;;;5157995;27;20117;-83
2023/04/28 11:14:24;;;;;;;3.83;2.70;;;;;;;;;;5139899;27;20034;-83
2023/04/28 11:17:04;;;;;;;6.90;2.50;;;;;;;;;;5138780;27;20167;-82
2023/04/28 11:19:31;;;;;;;4.22;2.60;;;;;;;;;;5156950;27;20549;-84
2023/04/28 11:21:58;;;;;;;2.40;2.20;;;;;;;;;;5156460;27;20022;-80
2023/04/28 11:24:26;;;;;;;4.93;2.63;;;;;;;;;;5139088;27;20155;-81
2023/04/28 11:26:52;;;;;;;3.83;2.38;;;;;;;;;;5139206;27;20031;-81
2023/04/28 11:29:39;;;;;;;6.55;2.70;;;;;;;;;;5140320;27;20027;-81
2023/04/28 11:32:06;;;;;;;9.13;2.30;;;;;;;;;;5143398;27;20026;-81
2023/04/28 11:34:32;;;;;;;4.15;2.33;;;;;;;;;;5121809;27;20428;-81
2023/04/28 11:36:58;;;;;;;3.25;2.25;;;;;;;;;;5138744;27;20050;-82
2023/04/28 11:39:28;;;;;;;4.63;2.28;;;;;;;;;;5139701;27;20094;-83
2023/04/28 11:41:53;;;;;;;4.57;2.53;;;;;;;;;;5122008;27;20067;-82
2023/04/28 11:44:22;;;;;;;4.88;2.10;;;;;;;;;;5138094;27;20050;-82
2023/04/28 11:46:56;;;;;;;2.40;2.08;;;;;;;;;;5120535;27;20409;-82
2023/04/28 11:49:42;;;;;;;3.03;2.22;;;;;;;;;;5139234;27;20079;-83
2023/04/28 11:52:08;;;;;;;5.93;2.20;;;;;;;;;;5105334;27;20424;-83
2023/04/28 11:54:34;;;;;;;3.10;2.10;;;;;;;;;;5120606;27;20535;-83
2023/04/28 11:57:03;;;;;;;2.22;1.95;;;;;;;;;;5120846;27;20122;-83
2023/04/28 11:59:30;;;;;;;4.28;2.17;;;;;;;;;;5138310;27;20027;-83
2023/04/28 12:01:58;;;;;;;3.58;2.00;;;;;;;;;;5120730;27;20117;-82
2023/04/28 12:04:28;;;;;;;2.05;1.83;;;;;;;;;;5137864;27;20031;-82
2023/04/28 12:07:14;;;;;;;5.53;2.00;;;;;;;;;;5137797;27;20034;-82
2023/04/28 12:10:11;;;;;;;3.10;1.95;;;;;;;;;;5137885;27;20022;-82
2023/04/28 12:12:37;;;;;;;3.33;2.15;;;;;;;;;;5156868;27;20059;-82
2023/04/28 12:15:04;;;;;;;8.32;2.35;;;;;;;;;;5120411;27;20138;-81
2023/04/28 12:17:38;;;;;;;2.75;2.13;;;;;;;;;;5137800;27;20174;-82
2023/04/28 12:20:08;;;;;;;3.20;1.92;;;;;;;;;;5137301;27;20494;-82
2023/04/28 12:22:47;;;;;;;4.07;2.15;;;;;;;;;;5155778;27;20138;-83
2023/04/28 12:25:18;;;;;;;2.38;2.00;;;;;;;;;;5137069;27;20027;-82
2023/04/28 12:28:02;;;;;;;3.08;2.30;;;;;;;;;;5137628;27;20052;-82
2023/04/28 12:30:28;;;;;;;2.97;2.15;;;;;;;;;;5120486;27;20027;-84
2023/04/28 12:32:54;;;;;;;3.33;2.20;;;;;;;;;;5119945;27;20031;-83
2023/04/28 12:35:24;;;;;;;5.45;2.05;;;;;;;;;;5137580;27;20037;-83
2023/04/28 12:37:51;;;;;;;4.45;2.20;;;;;;;;;;5137050;27;20082;-84
2023/04/28 12:40:17;;;;;;;2.90;1.80;;;;;;;;;;5155682;27;20034;-83
2023/04/28 12:42:42;;;;;;;3.28;2.25;;;;;;;;;;5120120;27;20422;-83
2023/04/28 12:45:08;;;;;;;5.50;2.30;;;;;;;;;;5137893;27;20034;-84
2023/04/28 12:47:34;;;;;;;6.10;1.95;;;;;;;;;;5138379;27;20412;-83
2023/04/28 12:49:59;;;;;;;3.72;2.03;;;;;;;;;;5123299;27;20082;-83
2023/04/28 12:52:25;;;;;;;9.80;2.53;;;;;;;;;;5142856;27;20069;-84
2023/04/28 12:54:50;;;;;;;5.03;2.20;;;;;;;;;;5122055;27;20033;-84
2023/04/28 12:57:17;;;;;;;4.05;2.40;;;;;;;;;;5103072;27;20034;-84
2023/04/28 12:59:43;;;;;;;6.28;2.13;;;;;;;;;;5137368;27;20021;-86
2023/04/28 13:02:09;;;;;;;5.72;1.90;;;;;;;;;;5139103;27;20023;-85
2023/04/28 13:04:34;;;;;;;2.67;2.15;;;;;;;;;;5137449;27;20099;-86
2023/04/28 13:07:00;;;;;;;3.80;1.77;;;;;;;;;;5120091;27;20473;-84
2023/04/28 13:09:26;;;;;;;3.78;2.10;;;;;;;;;;5138014;27;20049;-84
2023/04/28 13:11:54;;;;;;;5.05;2.58;;;;;;;;;;5137818;27;20031;-83
2023/04/28 13:14:20;;;;;;;3.65;2.08;;;;;;;;;;5138042;27;20037;-83
2023/04/28 13:16:45;;;;;;;3.90;1.75;;;;;;;;;;5156453;27;20372;-85
2023/04/28 13:19:12;;;;;;;3.47;2.25;;;;;;;;;;5156064;27;20083;-85
2023/04/28 13:21:42;;;;;;;2.38;1.90;;;;;;;;;;5137165;27;20029;-85
2023/04/28 13:24:08;;;;;;;2.45;1.90;;;;;;;;;;5119267;27;20033;-85
2023/04/28 13:26:33;;;;;;;2.10;1.90;;;;;;;;;;5154923;27;20033;-84
2023/04/28 13:28:59;;;;;;;4.30;2.00;;;;;;;;;;5136512;27;20027;-84
2023/04/28 13:31:25;;;;;;;2.15;1.80;;;;;;;;;;5139225;27;20110;-85
2023/04/28 13:33:51;;;;;;;2.35;1.60;;;;;;;;;;5138449;27;20035;-84
2023/04/28 13:36:16;;;;;;;3.42;2.08;;;;;;;;;;5155243;27;20034;-83
2023/04/28 13:38:44;;;;;;;3.30;1.80;;;;;;;;;;5155175;27;20056;-84
2023/04/28 13:41:10;;;;;;;3.03;1.95;;;;;;;;;;5155402;27;20026;-84
2023/04/28 13:43:36;;;;;;;2.50;1.85;;;;;;;;;;5154723;27;20528;-84
2023/04/28 13:46:07;;;;;;;1.88;1.60;;;;;;;;;;5138265;27;20485;-85
2023/04/28 13:48:33;;;;;;;2.22;1.63;;;;;;;;;;5141339;27;20130;-84
2023/04/28 13:50:58;;;;;;;2.10;1.60;;;;;;;;;;5140945;27;20491;-85
2023/04/28 13:53:24;;;;;;;2.20;1.40;;;;;;;;;;5140293;27;20031;-85
2023/04/28 13:55:52;;;;;;;1.50;1.40;;;;;;;;;;5159161;27;20042;-85
2023/04/28 13:58:18;;;;;;;1.98;1.40;;;;;;;;;;5158779;27;20548;-84
2023/04/28 14:00:44;;;;;;;6.28;1.60;;;;;;;;;;5158848;27;20434;-85
2023/04/28 14:03:10;;;;;;;1.20;1.20;;;;;;;;;;5158829;27;20034;-84
2023/04/28 14:05:35;;;;;;;1.73;1.40;;;;;;;;;;5158656;27;20023;-84
2023/04/28 14:08:02;;;;;;;3.90;1.40;;;;;;;;;;5140491;27;20071;-84
2023/04/28 14:10:28;;;;;;;1.50;1.40;;;;;;;;;;5158510;27;20054;-84
2023/04/28 14:12:53;;;;;;;1.70;1.60;;;;;;;;;;5140706;27;20069;-84
2023/04/28 14:15:19;;;;;;;1.30;1.20;;;;;;;;;;5139961;27;20029;-84
2023/04/28 14:17:44;;;;;;;2.40;1.20;;;;;;;;;;5139958;27;20031;-84
2023/04/28 14:20:10;;;;;;;1.25;1.15;;;;;;;;;;5158884;27;20116;-84
2023/04/28 14:22:37;;;;;;;1.17;1.08;;;;;;;;;;5142525;27;20030;-83
2023/04/28 14:25:02;;;;;;;1.67;1.13;;;;;;;;;;5122538;27;20027;-83
2023/04/28 14:27:28;;;;;;;1.40;1.30;;;;;;;;;;5139848;27;20156;-83
2023/04/28 14:29:53;;;;;;;1.85;1.30;;;;;;;;;;5139828;27;20415;-82
2023/04/28 14:32:20;;;;;;;1.23;1.13;;;;;;;;;;5158429;27;20469;-82
2023/04/28 14:34:48;;;;;;;4.07;1.20;;;;;;;;;;5139653;27;20026;-83
2023/04/28 14:37:14;;;;;;;0.98;0.98;;;;;;;;;;5122328;27;20057;-83
2023/04/28 14:39:41;;;;;;;0.90;0.90;;;;;;;;;;5122292;27;20027;-82
2023/04/28 14:42:06;;;;;;;4.97;1.17;;;;;;;;;;5122466;27;20423;-82
2023/04/28 14:44:33;;;;;;;1.25;1.00;;;;;;;;;;5139309;27;20035;-82